FDX458 YBBN-YSSY
Flight info
| Callsign | FDX458 |
|---|---|
| Flight time | N/A |
| Altitude | 34000 |
| Route | SANEG2/19L SANEG H91 IGDAM H652 BOREE BORE4A/34R |
| Aircraft | B77W/H-VGDW/C |
Departure
| Time | N/A |
|---|---|
| Airport | Brisbane International Airport (YBBN) |
Arrival
| Time | 2026-05-01 07:43 |
|---|---|
| Airport | Sydney Kingsford Smith International Airport (YSSY) |
| Time | Latitude | Longitude | Altitude | Speed | Heading |
|---|---|---|---|---|---|
| 2026-05-01 07:23 | -33.15871 | 151.03000 | 16341 ft | 408 kts | 175° |
| 2026-05-01 07:23 | -33.21380 | 151.03985 | 15168 ft | 402 kts | 175° |
| 2026-05-01 07:24 | -33.24155 | 151.04483 | 14565 ft | 403 kts | 175° |
| 2026-05-01 07:24 | -33.26911 | 151.05000 | 14067 ft | 400 kts | 175° |
| 2026-05-01 07:24 | -33.29675 | 151.05536 | 13506 ft | 388 kts | 175° |
| 2026-05-01 07:24 | -33.32245 | 151.06037 | 12837 ft | 372 kts | 175° |
| 2026-05-01 07:25 | -33.34810 | 151.06527 | 12284 ft | 375 kts | 175° |
| 2026-05-01 07:25 | -33.37434 | 151.07026 | 11702 ft | 378 kts | 175° |
| 2026-05-01 07:25 | -33.39938 | 151.07506 | 11181 ft | 379 kts | 175° |
| 2026-05-01 07:25 | -33.42527 | 151.08004 | 10851 ft | 374 kts | 175° |
| 2026-05-01 07:26 | -33.45036 | 151.08494 | 10688 ft | 354 kts | 175° |
| 2026-05-01 07:26 | -33.47368 | 151.08944 | 10478 ft | 323 kts | 176° |
| 2026-05-01 07:26 | -33.49505 | 151.09356 | 10189 ft | 300 kts | 177° |
| 2026-05-01 07:26 | -33.51510 | 151.09745 | 9935 ft | 287 kts | 177° |
| 2026-05-01 07:27 | -33.53458 | 151.10117 | 9936 ft | 282 kts | 177° |
| 2026-05-01 07:27 | -33.55386 | 151.10486 | 9931 ft | 279 kts | 177° |
| 2026-05-01 07:27 | -33.57311 | 151.10851 | 9705 ft | 283 kts | 177° |
| 2026-05-01 07:27 | -33.59265 | 151.11219 | 9359 ft | 282 kts | 177° |
| 2026-05-01 07:28 | -33.61166 | 151.11589 | 9040 ft | 271 kts | 176° |
| 2026-05-01 07:28 | -33.62988 | 151.11958 | 8890 ft | 265 kts | 177° |
| 2026-05-01 07:28 | -33.64836 | 151.12322 | 8783 ft | 273 kts | 177° |
| 2026-05-01 07:28 | -33.66735 | 151.12692 | 8601 ft | 278 kts | 177° |
| 2026-05-01 07:29 | -33.68637 | 151.13061 | 8470 ft | 275 kts | 177° |
| 2026-05-01 07:29 | -33.70439 | 151.13772 | 8286 ft | 280 kts | 150° |
| 2026-05-01 07:29 | -33.71853 | 151.15421 | 8181 ft | 287 kts | 136° |
| 2026-05-01 07:29 | -33.73237 | 151.17194 | 8034 ft | 294 kts | 137° |
| 2026-05-01 07:30 | -33.74662 | 151.18953 | 7874 ft | 292 kts | 139° |
| 2026-05-01 07:30 | -33.76054 | 151.20662 | 7698 ft | 281 kts | 139° |
| 2026-05-01 07:30 | -33.77415 | 151.22352 | 7560 ft | 285 kts | 138° |
| 2026-05-01 07:30 | -33.78803 | 151.24079 | 7446 ft | 290 kts | 138° |
| 2026-05-01 07:31 | -33.80207 | 151.25817 | 7292 ft | 288 kts | 138° |
| 2026-05-01 07:31 | -33.84863 | 151.29554 | 6840 ft | 262 kts | 175° |
| 2026-05-01 07:32 | -33.88517 | 151.30478 | 6580 ft | 271 kts | 174° |
| 2026-05-01 07:32 | -33.90359 | 151.30963 | 6425 ft | 271 kts | 174° |
| 2026-05-01 07:33 | -33.93998 | 151.31912 | 6142 ft | 264 kts | 174° |
| 2026-05-01 07:33 | -33.95779 | 151.32379 | 6079 ft | 262 kts | 174° |
| 2026-05-01 07:33 | -33.99256 | 151.33292 | 5245 ft | 255 kts | 174° |
| 2026-05-01 07:34 | -34.01011 | 151.33747 | 4953 ft | 260 kts | 174° |
| 2026-05-01 07:34 | -34.04520 | 151.34666 | 4343 ft | 255 kts | 174° |
| 2026-05-01 07:34 | -34.06261 | 151.35126 | 4183 ft | 256 kts | 174° |
| 2026-05-01 07:35 | -34.07992 | 151.35583 | 3990 ft | 253 kts | 174° |
| 2026-05-01 07:35 | -34.09736 | 151.36032 | 3832 ft | 259 kts | 175° |
| 2026-05-01 07:35 | -34.11493 | 151.36492 | 3638 ft | 252 kts | 174° |
| 2026-05-01 07:35 | -34.13126 | 151.36930 | 3455 ft | 230 kts | 175° |
| 2026-05-01 07:36 | -34.14628 | 151.37330 | 3313 ft | 213 kts | 177° |
| 2026-05-01 07:36 | -34.16089 | 151.37306 | 3285 ft | 206 kts | 206° |
| 2026-05-01 07:36 | -34.17167 | 151.36362 | 3184 ft | 186 kts | 240° |
| 2026-05-01 07:36 | -34.17580 | 151.34939 | 2937 ft | 177 kts | 261° |
| 2026-05-01 07:37 | -34.17938 | 151.32142 | 2499 ft | 160 kts | 263° |
| 2026-05-01 07:37 | -34.18060 | 151.30833 | 2280 ft | 153 kts | 271° |
| 2026-05-01 07:37 | -34.17626 | 151.29688 | 2127 ft | 159 kts | 310° |
| 2026-05-01 07:38 | -34.16740 | 151.28825 | 2103 ft | 169 kts | 313° |
| 2026-05-01 07:38 | -34.15822 | 151.27894 | 2059 ft | 174 kts | 314° |
| 2026-05-01 07:38 | -34.14098 | 151.26179 | 1994 ft | 147 kts | 316° |
| 2026-05-01 07:39 | -34.13311 | 151.25503 | 2001 ft | 132 kts | 315° |
| 2026-05-01 07:39 | -34.12599 | 151.24871 | 2035 ft | 134 kts | 315° |
| 2026-05-01 07:39 | -34.11034 | 151.23475 | 2029 ft | 155 kts | 321° |
| 2026-05-01 07:40 | -34.10126 | 151.22801 | 1989 ft | 154 kts | 339° |
| 2026-05-01 07:40 | -34.09094 | 151.22539 | 1922 ft | 153 kts | 347° |
| 2026-05-01 07:40 | -34.08054 | 151.22265 | 1843 ft | 152 kts | 346° |
| 2026-05-01 07:40 | -34.07025 | 151.21990 | 1768 ft | 150 kts | 346° |
| 2026-05-01 07:41 | -34.06001 | 151.21719 | 1691 ft | 152 kts | 346° |
| 2026-05-01 07:41 | -34.04960 | 151.21444 | 1539 ft | 154 kts | 345° |
| 2026-05-01 07:41 | -34.02898 | 151.20900 | 1197 ft | 151 kts | 346° |
| 2026-05-01 07:42 | -34.01872 | 151.20632 | 1003 ft | 151 kts | 346° |
| 2026-05-01 07:42 | -34.00854 | 151.20363 | 808 ft | 149 kts | 346° |
| 2026-05-01 07:42 | -33.99839 | 151.20098 | 618 ft | 148 kts | 346° |
| 2026-05-01 07:42 | -33.98827 | 151.19836 | 407 ft | 149 kts | 346° |
| 2026-05-01 07:43 | -33.97812 | 151.19566 | 217 ft | 150 kts | 347° |
| 2026-05-01 07:43 | -33.96795 | 151.19301 | 44 ft | 148 kts | 348° |
| 2026-05-01 07:43 | -33.95444 | 151.18948 | 29 ft | 36 kts | 342° |
| 2026-05-01 07:44 | -33.95267 | 151.18824 | 31 ft | 6 kts | 320° |
| 2026-05-01 07:44 | -33.95158 | 151.18708 | 34 ft | 13 kts | 317° |
| 2026-05-01 07:45 | -33.95097 | 151.18618 | 35 ft | 15 kts | 290° |
| 2026-05-01 07:45 | -33.95103 | 151.18497 | 35 ft | 15 kts | 258° |
| 2026-05-01 07:45 | -33.95132 | 151.18340 | 35 ft | 28 kts | 257° |
| 2026-05-01 07:45 | -33.95153 | 151.18224 | 35 ft | 1 kts | 257° |
| 2026-05-01 07:46 | -33.95153 | 151.18223 | 35 ft | 0 kts | 257° |
| 2026-05-01 07:48 | -33.95164 | 151.18166 | 35 ft | 20 kts | 258° |
| 2026-05-01 07:49 | -33.95196 | 151.17986 | 35 ft | 17 kts | 257° |
| 2026-05-01 07:49 | -33.95211 | 151.17899 | 35 ft | 0 kts | 258° |
| 2026-05-01 07:50 | -33.95213 | 151.17890 | 35 ft | 9 kts | 258° |
| 2026-05-01 07:50 | -33.95218 | 151.17554 | 34 ft | 21 kts | 335° |
| 2026-05-01 07:50 | -33.95064 | 151.17508 | 34 ft | 30 kts | 348° |
| 2026-05-01 07:51 | -33.94850 | 151.17453 | 34 ft | 31 kts | 348° |
| 2026-05-01 07:51 | -33.94641 | 151.17398 | 35 ft | 30 kts | 347° |
| 2026-05-01 07:51 | -33.94439 | 151.17346 | 35 ft | 30 kts | 348° |
| 2026-05-01 07:52 | -33.94032 | 151.17239 | 34 ft | 30 kts | 348° |
| 2026-05-01 07:52 | -33.93832 | 151.17188 | 34 ft | 30 kts | 348° |
| 2026-05-01 07:52 | -33.93628 | 151.17136 | 34 ft | 30 kts | 348° |
| 2026-05-01 07:53 | -33.93242 | 151.16968 | 35 ft | 30 kts | 336° |
| 2026-05-01 07:53 | -33.93082 | 151.16918 | 35 ft | 17 kts | 348° |
| 2026-05-01 07:53 | -33.93034 | 151.16895 | 35 ft | 5 kts | 315° |
| 2026-05-01 07:53 | -33.93003 | 151.16871 | 35 ft | 0 kts | 328° |